Time;durP1;ratioP1;P1;durP2;ratioP2;P2;SDS_P1;SDS_P2;PMS_P1;PMS_P2;Temp;Humidity;BMP_temperature;BMP_pressure;BME280_temperature;BME280_humidity;BME280_pressure;Samples;Min_cycle;Max_cycle;Signal;HPM_P1;HPM_P2
2021/07/16 00:00:36;;;;;;;3.10;2.90;;;;;;;21.06;65.50;101542.88;4955057;29;20545;-83
2021/07/16 00:03:02;;;;;;;5.25;3.13;;;;;;;20.93;65.79;101537.88;4955073;29;20031;-83
2021/07/16 00:05:27;;;;;;;4.25;3.22;;;;;;;20.68;66.43;101538.50;4955043;28;20027;-83
2021/07/16 00:07:53;;;;;;;3.72;3.08;;;;;;;20.77;66.06;101542.94;4967455;28;20062;-83
2021/07/16 00:10:21;;;;;;;3.42;2.95;;;;;;;20.80;66.14;101550.69;4974384;28;20054;-83
2021/07/16 00:12:47;;;;;;;4.32;3.08;;;;;;;20.87;66.53;101549.09;4974078;28;20027;-83
2021/07/16 00:15:14;;;;;;;4.30;2.78;;;;;;;20.88;66.45;101548.13;4974034;28;20019;-83
2021/07/16 00:17:41;;;;;;;4.63;3.13;;;;;;;20.88;66.12;101548.13;4974033;28;20038;-83
2021/07/16 00:20:07;;;;;;;3.35;2.90;;;;;;;20.88;66.25;101541.97;4974012;28;20138;-83
2021/07/16 00:22:33;;;;;;;3.00;2.60;;;;;;;20.84;66.18;101544.06;4973705;28;20041;-83
2021/07/16 00:24:59;;;;;;;3.50;2.85;;;;;;;20.83;66.05;101545.03;4974066;28;20102;-83
2021/07/16 00:27:24;;;;;;;3.65;3.03;;;;;;;20.81;66.34;101541.66;4974251;28;20034;-83
2021/07/16 00:29:50;;;;;;;3.55;2.97;;;;;;;20.78;66.28;101542.81;4973845;28;20041;-83
2021/07/16 00:32:15;;;;;;;3.38;3.08;;;;;;;20.80;66.07;101538.16;4973779;28;20035;-83
2021/07/16 00:34:41;;;;;;;4.80;3.15;;;;;;;20.77;66.50;101537.59;4974000;28;20023;-83
2021/07/16 00:37:06;;;;;;;3.72;2.85;;;;;;;20.76;66.28;101544.78;4973602;28;20169;-83
2021/07/16 00:39:34;;;;;;;2.83;2.63;;;;;;;20.73;66.27;101533.53;4973760;28;20092;-83
2021/07/16 00:42:00;;;;;;;3.50;3.20;;;;;;;20.74;66.16;101540.59;4973737;28;20519;-83
2021/07/16 00:44:26;;;;;;;3.35;2.88;;;;;;;20.69;66.51;101542.81;4974555;28;20390;-84
2021/07/16 00:46:51;;;;;;;5.65;3.10;;;;;;;20.67;66.50;101536.78;4973697;28;20018;-83
2021/07/16 00:49:17;;;;;;;3.28;2.97;;;;;;;20.59;66.35;101543.66;4973569;28;20543;-83
2021/07/16 00:51:42;;;;;;;4.88;3.20;;;;;;;20.59;66.61;101543.66;4973604;28;20132;-83
2021/07/16 00:54:08;;;;;;;4.25;3.38;;;;;;;20.56;67.11;101541.28;4972973;28;20023;-83
2021/07/16 00:56:33;;;;;;;3.70;3.28;;;;;;;20.52;66.63;101545.22;4973562;28;20030;-83
2021/07/16 00:58:59;;;;;;;4.70;3.80;;;;;;;20.59;66.54;101541.00;4973525;28;20377;-83
2021/07/16 01:01:25;;;;;;;6.85;3.80;;;;;;;20.58;66.66;101547.31;4973298;28;20036;-83
2021/07/16 01:03:50;;;;;;;3.75;3.45;;;;;;;20.57;66.94;101542.94;4973308;28;20031;-84
2021/07/16 01:06:16;;;;;;;3.55;3.25;;;;;;;20.56;66.93;101538.59;4973419;28;20030;-83
2021/07/16 01:08:41;;;;;;;4.63;3.63;;;;;;;20.45;66.78;101551.25;4973377;28;20432;-83
2021/07/16 01:11:07;;;;;;;5.72;3.08;;;;;;;20.47;67.06;101552.78;4973308;28;20031;-83
2021/07/16 01:13:33;;;;;;;3.38;3.08;;;;;;;20.48;66.89;101546.47;4973407;28;20027;-83
2021/07/16 01:15:58;;;;;;;4.40;3.72;;;;;;;20.42;66.84;101552.38;4973174;28;20043;-84
2021/07/16 01:18:23;;;;;;;5.07;3.70;;;;;;;20.42;67.33;101552.38;4972871;28;20019;-83
2021/07/16 01:20:49;;;;;;;4.40;4.00;;;;;;;20.47;67.09;101560.78;4973001;28;20034;-83
2021/07/16 01:23:22;;;;;;;5.53;3.72;;;;;;;20.42;67.34;101560.38;4973012;28;20073;-83
2021/07/16 01:25:48;;;;;;;4.40;3.63;;;;;;;20.39;67.13;101558.81;4973017;28;20122;-84
2021/07/16 01:28:14;;;;;;;5.88;3.85;;;;;;;20.37;67.09;101563.44;4973093;28;20249;-83
2021/07/16 01:30:40;;;;;;;4.53;3.53;;;;;;;20.27;66.75;101565.28;4972923;28;20105;-83
2021/07/16 01:33:05;;;;;;;4.32;3.92;;;;;;;20.29;67.29;101563.31;4972631;28;20442;-83
2021/07/16 01:35:31;;;;;;;5.90;3.47;;;;;;;20.26;66.97;101565.41;4972923;28;20297;-84
2021/07/16 01:37:57;;;;;;;5.30;4.00;;;;;;;20.21;67.17;101561.34;4972866;28;20039;-83
2021/07/16 01:40:24;;;;;;;3.97;3.67;;;;;;;20.18;67.01;101566.97;4972889;28;20078;-83
2021/07/16 01:42:52;;;;;;;4.75;3.50;;;;;;;20.14;66.87;101570.88;4972745;28;20031;-83
2021/07/16 01:45:19;;;;;;;4.82;3.75;;;;;;;20.12;66.91;101564.84;4972844;28;20035;-83
2021/07/16 01:47:56;;;;;;;3.67;3.38;;;;;;;20.14;67.03;101565.56;4972816;28;20031;-84
2021/07/16 01:50:22;;;;;;;4.60;3.60;;;;;;;20.08;66.93;101566.09;4972827;28;20485;-84
2021/07/16 01:52:49;;;;;;;4.80;3.75;;;;;;;20.06;67.05;101568.03;4972777;28;20035;-83
2021/07/16 01:55:16;;;;;;;4.40;4.00;;;;;;;20.03;67.27;101564.84;4972653;28;20482;-83
2021/07/16 01:57:50;;;;;;;4.47;4.00;;;;;;;20.07;67.43;101563.56;4972791;28;20077;-83
2021/07/16 02:00:26;;;;;;;4.05;3.65;;;;;;;20.05;67.25;101558.38;4972570;28;20500;-83
2021/07/16 02:03:03;;;;;;;4.40;3.88;;;;;;;20.05;67.39;101561.03;4972599;28;20532;-83
2021/07/16 02:05:29;;;;;;;4.63;3.88;;;;;;;20.00;67.59;101553.47;4973880;28;20062;-83
2021/07/16 02:08:00;;;;;;;5.05;4.05;;;;;;;20.00;67.47;101557.94;4976406;28;20077;-84
2021/07/16 02:10:27;;;;;;;4.53;3.75;;;;;;;19.96;67.51;101551.19;4976366;28;20493;-83
2021/07/16 02:12:54;;;;;;;3.95;3.22;;;;;;;19.95;67.28;101549.53;4976647;28;20042;-84
2021/07/16 02:15:22;;;;;;;5.22;3.72;;;;;;;19.90;67.07;101543.75;4976457;28;20051;-83
2021/07/16 02:17:48;;;;;;;5.45;4.40;;;;;;;19.86;67.24;101545.00;4976228;28;20027;-83
2021/07/16 02:20:24;;;;;;;6.30;4.30;;;;;;;19.81;67.79;101546.28;4976268;28;20051;-84
2021/07/16 02:22:51;;;;;;;7.38;4.95;;;;;;;19.77;68.19;101552.84;4976040;28;20062;-83
2021/07/16 02:25:17;;;;;;;4.88;4.40;;;;;;;19.77;68.10;101558.19;4976106;28;20031;-83
2021/07/16 02:27:44;;;;;;;8.52;4.25;;;;;;;19.77;67.94;101563.50;4976143;28;20037;-83
2021/07/16 02:30:10;;;;;;;4.60;4.20;;;;;;;19.75;67.87;101554.81;4976196;28;20053;-83
2021/07/16 02:32:36;;;;;;;5.90;4.15;;;;;;;19.73;67.64;101559.44;4976159;28;20442;-83
2021/07/16 02:35:01;;;;;;;4.40;4.00;;;;;;;19.68;67.98;101558.13;4976026;28;20109;-83
2021/07/16 02:37:26;;;;;;;4.40;4.00;;;;;;;19.63;67.82;101553.22;4975953;28;20497;-83
2021/07/16 02:39:52;;;;;;;3.70;3.40;;;;;;;19.57;67.40;101551.94;4975975;28;20053;-83
2021/07/16 02:42:17;;;;;;;5.88;3.78;;;;;;;19.54;67.91;101556.66;4975745;28;20113;-83
2021/07/16 02:44:42;;;;;;;7.53;4.28;;;;;;;19.52;68.17;101559.47;4975892;28;20061;-84
2021/07/16 02:47:08;;;;;;;5.35;4.30;;;;;;;19.51;68.29;101560.47;4975988;28;20073;-83
2021/07/16 02:49:33;;;;;;;4.25;3.85;;;;;;;19.51;68.17;101551.59;4975874;28;20030;-83
2021/07/16 02:51:58;;;;;;;5.50;4.93;;;;;;;19.43;68.70;101562.91;4975834;28;20022;-84
2021/07/16 02:54:24;;;;;;;7.65;5.22;;;;;;;19.38;69.33;101557.16;4975555;28;20128;-83
2021/07/16 02:56:49;;;;;;;7.32;5.00;;;;;;;19.40;68.57;101566.69;4975646;28;20023;-83
2021/07/16 02:59:15;;;;;;;5.65;5.15;;;;;;;19.40;68.77;101564.03;4975734;28;20031;-83
2021/07/16 03:01:57;;;;;;;5.72;4.95;;;;;;;19.40;68.85;101555.22;4975585;28;20031;-83
2021/07/16 03:04:23;;;;;;;5.65;4.93;;;;;;;19.33;68.76;101560.25;4975477;28;20053;-83
2021/07/16 03:06:48;;;;;;;5.18;4.68;;;;;;;19.31;68.77;101553.34;4975440;28;20058;-83
2021/07/16 03:09:14;;;;;;;5.07;4.45;;;;;;;19.31;68.69;101556.00;4975446;28;20031;-83
2021/07/16 03:11:39;;;;;;;8.23;6.10;;;;;;;19.27;69.21;101550.09;4975679;28;20027;-83
2021/07/16 03:14:05;;;;;;;7.80;5.20;;;;;;;19.25;69.89;101549.38;4975288;28;20381;-83
2021/07/16 03:16:31;;;;;;;5.68;4.38;;;;;;;19.26;69.68;101559.06;4974807;28;20022;-83
2021/07/16 03:19:04;;;;;;;7.68;5.22;;;;;;;19.32;68.65;101549.72;4975084;28;20555;-83
2021/07/16 03:21:29;;;;;;;7.85;5.35;;;;;;;19.25;69.10;101553.88;4975031;28;20034;-83
2021/07/16 03:23:55;;;;;;;7.28;5.18;;;;;;;19.20;68.94;101554.28;4975236;28;20027;-83
2021/07/16 03:26:20;;;;;;;7.47;5.35;;;;;;;19.06;69.38;101557.31;4975138;28;20030;-83
2021/07/16 03:28:45;;;;;;;8.45;5.53;;;;;;;19.07;69.66;101553.66;4975012;28;20019;-83
2021/07/16 03:31:11;;;;;;;7.70;5.60;;;;;;;19.17;70.55;101550.09;4974996;28;20570;-83
2021/07/16 03:33:37;;;;;;;8.15;6.63;;;;;;;19.22;70.88;101552.34;4974852;28;20367;-83
2021/07/16 03:36:04;;;;;;;8.50;6.07;;;;;;;19.25;70.79;101562.69;4974922;28;20023;-83
2021/07/16 03:38:29;;;;;;;7.55;5.80;;;;;;;19.22;70.76;101558.50;4974964;28;20031;-83
2021/07/16 03:40:57;;;;;;;8.77;6.30;;;;;;;19.27;70.87;101566.06;4974924;28;20043;-84
2021/07/16 03:43:23;;;;;;;6.35;5.28;;;;;;;19.24;70.28;101563.69;4974684;28;20029;-83
2021/07/16 03:45:50;;;;;;;7.68;5.18;;;;;;;19.20;70.10;101571.09;4974846;28;20031;-83
2021/07/16 03:48:16;;;;;;;8.30;5.32;;;;;;;19.21;69.67;101571.94;4974732;28;20101;-83
2021/07/16 03:50:41;;;;;;;8.98;5.05;;;;;;;19.24;69.78;101563.69;4974928;28;20106;-83
2021/07/16 03:53:06;;;;;;;9.07;6.00;;;;;;;19.25;69.99;101568.03;4974765;28;20031;-83
2021/07/16 03:55:32;;;;;;;6.20;4.80;;;;;;;19.25;70.14;101573.34;4974688;28;20485;-83
2021/07/16 03:57:58;;;;;;;6.55;5.95;;;;;;;19.24;69.95;101570.84;4974688;28;20034;-83
2021/07/16 04:00:28;;;;;;;5.72;4.88;;;;;;;19.21;69.32;101577.25;4974650;28;20481;-83
2021/07/16 04:02:54;;;;;;;5.30;4.80;;;;;;;19.18;69.25;101580.19;4974156;28;20045;-83
2021/07/16 04:05:20;;;;;;;7.55;4.65;;;;;;;19.14;69.10;101581.44;4974418;28;20026;-83
2021/07/16 04:07:45;;;;;;;7.35;4.97;;;;;;;19.07;69.40;101583.75;4974559;28;20027;-83
2021/07/16 04:10:19;;;;;;;7.47;5.70;;;;;;;18.96;69.69;101584.69;4974409;28;20477;-83
2021/07/16 04:13:02;;;;;;;10.95;6.05;;;;;;;18.98;70.02;101573.94;4974447;28;20032;-83
2021/07/16 04:15:27;;;;;;;9.18;5.93;;;;;;;19.02;69.91;101584.16;4974030;28;20086;-83
2021/07/16 04:17:55;;;;;;;7.82;5.65;;;;;;;19.01;69.90;101577.13;4974024;28;20034;-83
2021/07/16 04:20:20;;;;;;;7.57;5.93;;;;;;;19.00;69.52;101575.47;4974104;28;20023;-83
2021/07/16 04:22:46;;;;;;;6.10;5.50;;;;;;;18.97;69.61;101566.91;4974230;28;20050;-83
2021/07/16 04:25:16;;;;;;;9.27;6.28;;;;;;;18.86;70.15;101578.47;4974087;28;20038;-83
2021/07/16 04:27:42;;;;;;;6.97;5.55;;;;;;;18.92;70.06;101583.28;4973318;28;20031;-83
2021/07/16 04:30:12;;;;;;;8.57;5.65;;;;;;;18.92;69.96;101580.59;4973933;28;20062;-83
2021/07/16 04:32:38;;;;;;;8.13;5.68;;;;;;;18.90;69.76;101579.91;4973905;28;20034;-83
2021/07/16 04:35:04;;;;;;;7.45;5.15;;;;;;;18.91;69.68;101581.56;4973905;28;20033;-83
2021/07/16 04:37:30;;;;;;;7.13;5.35;;;;;;;18.92;69.68;101582.44;4973810;28;20034;-83
2021/07/16 04:39:56;;;;;;;8.85;5.07;;;;;;;18.94;69.87;101586.66;4973824;28;20027;-83
2021/07/16 04:42:21;;;;;;;5.53;4.95;;;;;;;18.91;69.90;101588.72;4973597;28;20489;-83
2021/07/16 04:44:47;;;;;;;5.47;4.97;;;;;;;18.92;69.77;101585.94;4973792;28;20070;-83
2021/07/16 04:47:13;;;;;;;7.15;5.00;;;;;;;18.94;69.51;101596.44;4973804;28;20473;-83
2021/07/16 04:49:38;;;;;;;5.70;5.15;;;;;;;18.92;69.41;101593.91;4974238;28;20023;-83
2021/07/16 04:52:04;;;;;;;6.82;5.55;;;;;;;18.88;69.70;101596.94;4973651;28;20038;-83
2021/07/16 04:54:29;;;;;;;6.40;5.43;;;;;;;18.91;70.01;101602.84;4968990;28;20026;-83
2021/07/16 04:56:55;;;;;;;7.03;5.90;;;;;;;18.78;69.72;101599.53;4955455;28;20028;-83
2021/07/16 04:59:20;;;;;;;6.82;5.80;;;;;;;18.81;71.05;101607.28;4954963;28;20069;-83
2021/07/16 05:01:46;;;;;;;10.30;5.90;;;;;;;18.85;70.91;101611.34;4959346;28;20023;-83
2021/07/16 05:04:11;;;;;;;6.93;5.72;;;;;;;18.92;70.41;101614.38;4968301;28;20027;-83
2021/07/16 05:06:36;;;;;;;7.07;5.68;;;;;;;18.92;70.13;101604.56;4968287;28;20026;-83
2021/07/16 05:09:03;;;;;;;7.13;6.43;;;;;;;18.94;70.33;101610.59;4955039;28;20035;-82
2021/07/16 05:11:30;;;;;;;10.48;7.20;;;;;;;18.88;70.33;101608.44;4956291;28;20027;-82
2021/07/16 05:13:56;;;;;;;6.88;6.22;;;;;;;18.98;70.85;101613.84;4956606;28;20027;-83
2021/07/16 05:16:22;;;;;;;10.27;6.32;;;;;;;18.97;70.82;101612.97;4955266;28;20031;-90
2021/07/16 05:18:47;;;;;;;10.07;6.32;;;;;;;19.06;71.09;101616.69;4963290;28;20022;-86
2021/07/16 05:21:14;;;;;;;7.65;6.40;;;;;;;19.12;70.79;101616.19;4961095;28;20027;-85
2021/07/16 05:23:40;;;;;;;7.60;6.00;;;;;;;19.14;70.65;101619.53;4972914;28;20077;-91
2021/07/16 05:26:06;;;;;;;7.95;5.97;;;;;;;19.13;70.58;101622.34;4962192;28;20034;-85
2021/07/16 05:28:31;;;;;;;8.88;6.55;;;;;;;19.18;70.61;101617.47;4953613;28;20031;-87
2021/07/16 05:30:57;;;;;;;6.20;5.60;;;;;;;19.24;70.74;101619.59;4954115;28;20027;-85
2021/07/16 05:33:23;;;;;;;7.53;6.35;;;;;;;19.21;71.33;101614.53;4955000;28;20030;-86
2021/07/16 05:35:49;;;;;;;6.68;5.93;;;;;;;19.32;71.34;101617.13;4973095;28;20414;-85
2021/07/16 05:38:14;;;;;;;8.27;6.47;;;;;;;19.35;71.27;101622.22;4972797;28;20054;-85
2021/07/16 05:40:40;;;;;;;6.68;6.00;;;;;;;19.39;71.54;101626.28;4972754;28;20023;-86
2021/07/16 05:43:07;;;;;;;7.38;5.78;;;;;;;19.47;71.09;101635.41;4965867;28;20459;-85
2021/07/16 05:45:33;;;;;;;7.47;6.63;;;;;;;19.49;71.53;101630.81;4971204;28;20023;-86
2021/07/16 05:48:00;;;;;;;8.23;6.57;;;;;;;19.51;71.54;101634.19;4963060;28;20033;-86
2021/07/16 05:50:26;;;;;;;7.35;6.65;;;;;;;19.65;71.54;101633.84;4972823;28;20093;-85
2021/07/16 05:52:51;;;;;;;11.18;7.50;;;;;;;19.72;71.21;101631.50;4969911;28;20031;-85
2021/07/16 05:55:16;;;;;;;6.25;5.60;;;;;;;19.78;71.07;101639.78;4953492;29;20059;-86
2021/07/16 05:57:42;;;;;;;6.57;5.80;;;;;;;19.85;70.98;101639.28;4970998;28;20054;-86
2021/07/16 06:00:08;;;;;;;6.82;6.13;;;;;;;19.90;71.28;101643.22;4971455;28;20097;-86
2021/07/16 06:02:33;;;;;;;7.82;6.03;;;;;;;19.93;71.25;101640.28;4967034;28;20572;-86
2021/07/16 06:04:58;;;;;;;9.60;6.15;;;;;;;20.02;71.19;101635.94;4969354;28;20056;-86
2021/07/16 06:07:24;;;;;;;8.98;5.85;;;;;;;20.12;70.88;101643.97;4969077;28;20528;-87
2021/07/16 06:09:49;;;;;;;7.15;5.85;;;;;;;20.18;70.47;101651.44;4967990;28;20070;-86
2021/07/16 06:12:16;;;;;;;7.53;6.82;;;;;;;20.30;70.61;101645.03;4957220;28;20625;-87
2021/07/16 06:14:41;;;;;;;7.63;6.75;;;;;;;20.39;69.71;101651.34;4952964;28;20031;-87
2021/07/16 06:17:07;;;;;;;7.97;6.30;;;;;;;20.54;69.78;101649.97;4964206;28;20042;-87
2021/07/16 06:19:33;;;;;;;8.65;6.80;;;;;;;21.26;68.86;101647.81;4965197;28;20023;-87
2021/07/16 06:21:58;;;;;;;7.68;6.82;;;;;;;21.95;66.40;101643.13;4962095;28;20038;-87
2021/07/16 06:24:23;;;;;;;9.82;6.72;;;;;;;22.60;64.65;101647.53;4960951;28;20023;-87
2021/07/16 06:26:49;;;;;;;6.45;5.80;;;;;;;23.17;62.43;101645.34;4971990;28;20039;-86
2021/07/16 06:29:14;;;;;;;9.98;5.00;;;;;;;23.83;60.39;101656.47;4964402;28;20098;-86
2021/07/16 06:31:40;;;;;;;8.15;4.80;;;;;;;24.41;58.40;101662.84;4967714;28;20054;-86
2021/07/16 06:34:05;;;;;;;8.13;4.90;;;;;;;25.10;56.15;101658.91;4969393;28;20035;-86
2021/07/16 06:36:31;;;;;;;5.25;4.03;;;;;;;25.73;55.08;101651.03;4960368;28;20302;-86
2021/07/16 06:38:56;;;;;;;10.45;3.75;;;;;;;26.17;52.48;101655.94;4972417;28;20031;-86
2021/07/16 06:41:22;;;;;;;6.78;3.28;;;;;;;26.91;51.21;101656.25;4972179;28;20034;-86
2021/07/16 06:43:47;;;;;;;5.45;3.45;;;;;;;27.57;49.09;101663.75;4971280;28;20136;-86
2021/07/16 06:46:13;;;;;;;4.13;2.80;;;;;;;28.05;47.39;101660.66;4962111;28;20031;-86
2021/07/16 06:48:42;;;;;;;5.97;3.17;;;;;;;28.51;45.34;101662.22;4971619;28;20544;-86
2021/07/16 06:51:09;;;;;;;4.03;3.20;;;;;;;29.05;44.41;101669.78;4972816;28;20033;-86
2021/07/16 06:53:34;;;;;;;7.38;2.85;;;;;;;29.58;43.52;101664.78;4975313;28;20038;-86
2021/07/16 06:55:59;;;;;;;6.40;2.60;;;;;;;29.93;42.86;101661.19;4959072;28;20030;-86
2021/07/16 06:58:24;;;;;;;7.75;2.95;;;;;;;30.44;42.57;101664.28;4974894;28;20034;-87
2021/07/16 07:00:50;;;;;;;5.65;2.63;;;;;;;30.86;41.23;101663.28;4960634;28;20034;-87
2021/07/16 07:03:16;;;;;;;4.10;2.38;;;;;;;31.32;40.46;101668.72;4961657;28;20117;-87
2021/07/16 07:05:41;;;;;;;9.35;2.67;;;;;;;31.41;39.77;101659.28;4973805;28;20090;-87
2021/07/16 07:08:07;;;;;;;6.45;2.95;;;;;;;32.02;38.67;101659.97;4975080;28;20760;-87
2021/07/16 07:10:32;;;;;;;5.95;2.47;;;;;;;32.31;38.69;101669.44;4972413;28;20045;-87
2021/07/16 07:12:57;;;;;;;5.35;2.50;;;;;;;32.70;37.14;101670.25;4973244;28;20027;-87
2021/07/16 07:15:23;;;;;;;6.47;2.13;;;;;;;32.76;37.10;101668.50;4974562;28;20115;-87
2021/07/16 07:17:48;;;;;;;5.30;2.10;;;;;;;33.39;36.55;101664.81;4974235;28;20477;-87
2021/07/16 07:20:14;;;;;;;4.70;2.15;;;;;;;33.58;35.68;101663.75;4973778;28;20031;-87
2021/07/16 07:22:40;;;;;;;5.25;2.10;;;;;;;34.10;35.83;101668.78;4974880;28;20043;-87
2021/07/16 07:25:06;;;;;;;7.45;2.63;;;;;;;34.49;35.51;101668.47;4974736;28;20482;-87
2021/07/16 07:27:32;;;;;;;6.50;3.38;;;;;;;34.57;35.05;101673.59;4974549;28;20038;-87
2021/07/16 07:29:58;;;;;;;8.13;2.50;;;;;;;34.86;35.20;101669.16;4976101;28;20023;-87
2021/07/16 07:32:23;;;;;;;6.70;2.78;;;;;;;34.17;34.49;101675.00;4973716;28;20159;-87
2021/07/16 07:34:48;;;;;;;7.22;2.35;;;;;;;33.83;35.54;101673.78;4972100;28;20062;-86
2021/07/16 07:37:14;;;;;;;7.00;2.50;;;;;;;34.60;34.58;101675.00;4972025;28;20034;-88
2021/07/16 07:39:39;;;;;;;7.05;2.17;;;;;;;35.22;33.82;101678.22;4971233;28;20023;-87
2021/07/16 07:42:04;;;;;;;9.13;2.45;;;;;;;35.57;33.46;101674.59;4974576;28;20038;-87
2021/07/16 07:44:30;;;;;;;3.90;2.13;;;;;;;35.77;33.39;101681.59;4973819;28;20027;-87
2021/07/16 07:46:55;;;;;;;7.25;2.78;;;;;;;35.99;33.01;101681.75;4974116;28;20030;-88
2021/07/16 07:49:20;;;;;;;9.55;2.90;;;;;;;35.73;33.04;101686.72;4972569;28;20126;-88
2021/07/16 07:51:46;;;;;;;12.75;2.97;;;;;;;35.09;33.00;101679.25;4973108;28;20015;-87
2021/07/16 07:54:11;;;;;;;6.57;2.88;;;;;;;35.07;33.67;101680.56;4970439;28;20031;-88
2021/07/16 07:56:37;;;;;;;5.97;2.33;;;;;;;35.60;33.14;101678.75;4974159;28;20055;-88
2021/07/16 07:59:04;;;;;;;7.85;3.08;;;;;;;34.87;33.66;101675.44;4973500;28;20430;-88
2021/07/16 08:01:34;;;;;;;6.97;2.85;;;;;;;34.92;32.95;101672.84;4969611;28;20535;-87
2021/07/16 08:04:00;;;;;;;6.47;2.88;;;;;;;34.62;34.30;101684.63;4971316;28;20438;-87
2021/07/16 08:06:26;;;;;;;7.63;2.53;;;;;;;34.83;33.85;101679.72;4970522;28;20031;-87
2021/07/16 08:08:52;;;;;;;5.05;2.50;;;;;;;35.88;33.87;101677.97;4966743;28;20505;-87
2021/07/16 08:11:17;;;;;;;6.28;2.30;;;;;;;36.92;31.52;101674.94;4967632;28;20042;-87
2021/07/16 08:13:43;;;;;;;7.50;3.10;;;;;;;36.62;32.37;101679.91;4974012;28;20030;-87
2021/07/16 08:16:08;;;;;;;10.88;2.78;;;;;;;37.00;30.29;101670.97;4972391;28;20030;-87
2021/07/16 08:18:34;;;;;;;6.47;2.28;;;;;;;36.76;30.04;101674.97;4973226;28;20031;-87
2021/07/16 08:20:59;;;;;;;7.85;2.63;;;;;;;35.87;29.56;101668.97;4973526;28;20142;-87
2021/07/16 08:23:24;;;;;;;7.80;2.03;;;;;;;37.33;29.51;101672.03;4972175;28;20023;-88
2021/07/16 08:25:50;;;;;;;7.63;2.22;;;;;;;37.02;29.09;101660.59;4971964;28;20038;-88
2021/07/16 08:28:15;;;;;;;8.57;2.72;;;;;;;37.51;28.11;101670.88;4973418;28;20031;-88
2021/07/16 08:30:41;;;;;;;7.82;2.22;;;;;;;37.87;27.80;101660.38;4973591;28;20019;-87
2021/07/16 08:33:06;;;;;;;10.70;2.00;;;;;;;38.35;27.80;101674.31;4972428;28;20497;-88
2021/07/16 08:35:32;;;;;;;7.43;2.35;;;;;;;38.28;27.54;101671.78;4961919;28;20031;-87
2021/07/16 08:37:57;;;;;;;10.68;2.78;;;;;;;38.46;27.60;101670.56;4960044;28;20030;-88
2021/07/16 08:40:23;;;;;;;8.45;2.55;;;;;;;38.52;27.67;101658.59;4971080;28;20569;-87
2021/07/16 08:42:49;;;;;;;5.22;2.38;;;;;;;39.10;26.98;101660.66;4960348;28;20027;-88
2021/07/16 08:45:15;;;;;;;9.45;2.47;;;;;;;38.76;26.24;101669.19;4963832;28;20034;-88
2021/07/16 08:47:42;;;;;;;10.00;3.03;;;;;;;38.01;26.81;101674.50;4971251;28;20396;-88
2021/07/16 08:50:10;;;;;;;5.15;2.63;;;;;;;37.40;27.50;101667.16;4973012;28;20030;-88
2021/07/16 08:52:43;;;;;;;6.63;2.83;;;;;;;37.42;28.50;101673.22;4971506;28;20043;-87
2021/07/16 08:55:09;;;;;;;8.25;2.15;;;;;;;38.29;27.96;101674.28;4972975;28;20034;-88
2021/07/16 08:57:34;;;;;;;8.82;2.88;;;;;;;38.81;27.45;101672.00;4966172;28;20019;-88
2021/07/16 09:00:00;;;;;;;9.98;3.22;;;;;;;37.81;28.22;101675.94;4971821;28;20034;-87
2021/07/16 09:02:28;;;;;;;7.20;2.50;;;;;;;36.99;29.61;101671.22;4968850;28;20042;-88
2021/07/16 09:05:03;;;;;;;7.22;3.08;;;;;;;37.31;28.33;101674.19;4973413;28;20038;-87
2021/07/16 09:07:28;;;;;;;10.02;3.72;;;;;;;37.85;29.54;101673.50;4972557;28;20042;-87
2021/07/16 09:10:08;;;;;;;9.50;3.28;;;;;;;38.17;27.83;101676.34;4973244;28;20399;-87
2021/07/16 09:12:37;;;;;;;5.80;2.73;;;;;;;38.70;28.02;101670.25;4965048;28;20074;-87
2021/07/16 09:15:14;;;;;;;8.13;3.28;;;;;;;39.22;27.53;101664.88;4972828;28;20058;-87
2021/07/16 09:17:45;;;;;;;11.18;3.15;;;;;;;39.23;27.29;101672.00;4968045;28;20023;-87
2021/07/16 09:20:25;;;;;;;6.25;2.70;;;;;;;40.25;26.15;101667.97;4960302;28;20074;-88
2021/07/16 09:23:08;;;;;;;7.65;2.80;;;;;;;40.30;26.91;101661.66;4957629;28;20558;-85
2021/07/16 09:25:34;;;;;;;10.52;3.03;;;;;;;40.23;26.67;101665.50;4973232;28;20107;-85
2021/07/16 09:27:59;;;;;;;8.15;3.13;;;;;;;40.25;25.17;101663.31;4971550;28;20039;-85
2021/07/16 09:30:26;;;;;;;7.15;3.08;;;;;;;40.51;26.18;101665.28;4972327;28;20027;-85
2021/07/16 09:32:57;;;;;;;10.60;3.05;;;;;;;40.53;25.93;101669.38;4972808;28;20073;-85
2021/07/16 09:35:38;;;;;;;9.13;3.42;;;;;;;41.12;26.30;101664.38;4973021;28;20027;-85
2021/07/16 09:38:17;;;;;;;9.40;2.90;;;;;;;41.41;25.65;101662.66;4953717;29;20031;-83
2021/07/16 09:40:50;;;;;;;10.00;3.60;;;;;;;40.61;26.14;101660.56;4961998;28;20047;-83
2021/07/16 09:43:18;;;;;;;10.55;3.47;;;;;;;39.40;26.69;101668.25;4969042;28;20035;-85
2021/07/16 09:46:06;;;;;;;10.05;3.05;;;;;;;40.16;26.02;101659.44;4972764;28;20046;-87
2021/07/16 09:48:35;;;;;;;9.80;3.95;;;;;;;40.17;25.09;101665.75;4972583;28;20027;-88
2021/07/16 09:51:27;;;;;;;5.63;2.47;;;;;;;40.55;26.36;101666.38;4972638;28;20031;-87
2021/07/16 09:54:03;;;;;;;7.53;3.22;;;;;;;40.05;26.89;101674.25;4972785;28;20023;-85
2021/07/16 09:56:33;;;;;;;7.38;3.55;;;;;;;40.28;26.23;101663.84;4972868;28;20054;-87
2021/07/16 09:59:01;;;;;;;8.82;3.65;;;;;;;39.76;26.55;101657.41;4972878;28;20069;-86
2021/07/16 10:01:32;;;;;;;9.18;3.08;;;;;;;39.46;26.73;101670.78;4967147;28;20101;-86
2021/07/16 10:04:01;;;;;;;10.80;3.80;;;;;;;39.28;26.86;101657.47;4972971;28;20038;-85
2021/07/16 10:06:28;;;;;;;15.50;3.05;;;;;;;39.37;28.27;101657.78;4949438;28;20556;-83
2021/07/16 10:08:58;;;;;;;10.23;3.30;;;;;;;38.67;28.93;101655.97;4972127;28;20026;-81
2021/07/16 10:11:25;;;;;;;4.60;3.00;;;;;;;39.51;27.45;101658.16;4972061;28;20023;-81
2021/07/16 10:13:53;;;;;;;10.52;3.33;;;;;;;38.75;27.89;101664.81;4983338;28;20019;-81
2021/07/16 10:16:19;;;;;;;8.77;3.55;;;;;;;39.74;27.07;101660.44;4971684;28;20019;-81
2021/07/16 10:18:44;;;;;;;5.25;3.05;;;;;;;40.55;27.03;101660.88;4971948;28;20495;-81
2021/07/16 10:21:10;;;;;;;7.93;3.10;;;;;;;40.78;26.84;101659.47;4971645;28;20358;-81
2021/07/16 10:23:39;;;;;;;7.80;3.40;;;;;;;40.80;26.66;101657.25;4970753;28;20031;-81
2021/07/16 10:26:09;;;;;;;10.55;3.47;;;;;;;40.77;25.56;101657.84;4968465;28;20038;-82
2021/07/16 10:28:35;;;;;;;;;;;;;;;41.14;25.02;101667.69;4976694;28;20152;-81
2021/07/16 10:31:01;;;;;;;6.18;2.17;;;;;;;40.10;26.19;101655.03;4948530;28;20034;-81
2021/07/16 10:33:38;;;;;;;8.25;2.55;;;;;;;39.95;26.45;101655.00;4974084;28;20129;-83
2021/07/16 10:36:11;;;;;;;7.97;3.00;;;;;;;40.38;26.73;101658.38;4972307;28;20393;-82
2021/07/16 10:38:36;;;;;;;11.77;2.33;;;;;;;40.55;26.01;101655.34;4967906;28;20034;-82
2021/07/16 10:41:02;;;;;;;8.95;2.38;;;;;;;40.45;26.17;101656.19;4974225;28;20031;-83
2021/07/16 10:43:27;;;;;;;11.10;2.67;;;;;;;39.36;27.83;101667.09;4974629;28;20528;-82
2021/07/16 10:45:57;;;;;;;6.47;2.33;;;;;;;39.53;26.98;101666.94;4964888;28;20034;-83
2021/07/16 10:48:31;;;;;;;8.07;3.07;;;;;;;39.62;27.62;101665.34;4959107;28;20352;-82
2021/07/16 10:50:58;;;;;;;8.38;2.40;;;;;;;39.72;27.59;101662.63;4975273;28;20130;-83
2021/07/16 10:53:29;;;;;;;4.85;2.35;;;;;;;41.17;25.54;101664.34;4975073;28;20030;-83
2021/07/16 10:55:55;;;;;;;5.63;2.38;;;;;;;41.36;24.83;101668.16;4964659;28;20112;-84
2021/07/16 10:58:34;;;;;;;4.95;2.65;;;;;;;41.42;24.90;101675.31;4974419;28;20433;-84
2021/07/16 11:01:37;;;;;;;11.95;2.40;;;;;;;41.88;25.08;101671.50;5109564;27;20391;-84
2021/07/16 11:04:05;;;;;;;13.23;2.75;;;;;;;41.86;23.94;101678.44;5100813;28;20582;-84
2021/07/16 11:07:05;;;;;;;6.25;1.90;;;;;;;42.24;24.60;101681.50;5107098;28;20405;-82
2021/07/16 11:09:43;;;;;;;12.75;3.63;;;;;;;41.95;24.91;101674.78;5005801;28;20428;-84
2021/07/16 11:12:23;;;;;;;10.10;2.33;;;;;;;41.67;25.67;101676.34;5078205;28;20052;-84
2021/07/16 11:14:49;;;;;;;6.90;2.58;;;;;;;40.23;26.91;101687.50;5092483;28;20042;-84
2021/07/16 11:17:33;;;;;;;6.13;2.50;;;;;;;41.10;24.41;101677.56;5088801;28;20028;-86
2021/07/16 11:20:19;;;;;;;7.88;2.22;;;;;;;41.55;24.96;101675.78;5088737;28;20529;-84
2021/07/16 11:23:05;;;;;;;7.75;2.33;;;;;;;41.61;24.93;101682.97;5094790;28;20474;-85
2021/07/16 11:25:32;;;;;;;6.32;1.75;;;;;;;40.49;26.17;101679.31;5098526;28;20031;-86